createdAt,value
2023-02-17T00:01:17.633Z,1.40
2023-02-17T00:03:48.040Z,1.30
2023-02-17T00:06:16.823Z,1.30
2023-02-17T00:08:43.798Z,1.20
2023-02-17T00:11:10.699Z,1.30
2023-02-17T00:13:37.787Z,1.10
2023-02-17T00:16:12.142Z,1.20
2023-02-17T00:18:39.022Z,1.27
2023-02-17T00:21:19.520Z,1.00
2023-02-17T00:23:47.790Z,1.30
2023-02-17T00:26:15.616Z,1.08
2023-02-17T00:28:42.886Z,1.20
2023-02-17T00:31:15.589Z,1.30
2023-02-17T00:33:42.678Z,1.17
2023-02-17T00:36:12.768Z,1.02
2023-02-17T00:38:40.208Z,1.10
2023-02-17T00:41:07.107Z,1.10
2023-02-17T00:43:33.989Z,0.98
2023-02-17T00:46:04.239Z,1.13
2023-02-17T00:48:31.823Z,1.05
2023-02-17T00:50:58.898Z,1.10
2023-02-17T00:53:25.898Z,1.00
2023-02-17T00:55:52.807Z,1.00
2023-02-17T00:58:19.681Z,1.10
2023-02-17T01:00:46.727Z,0.88
2023-02-17T01:03:13.583Z,1.05
2023-02-17T01:05:42.323Z,1.00
2023-02-17T01:08:09.839Z,0.80
2023-02-17T01:10:38.759Z,0.77
2023-02-17T01:13:06.522Z,0.80
2023-02-17T01:15:44.763Z,1.00
2023-02-17T01:18:11.781Z,1.08
2023-02-17T01:20:39.614Z,0.73
2023-02-17T01:23:07.670Z,0.73
2023-02-17T01:25:42.243Z,0.68
2023-02-17T01:28:11.494Z,0.60
2023-02-17T01:30:38.353Z,0.85
2023-02-17T01:33:05.247Z,0.63
2023-02-17T01:35:34.055Z,0.80
2023-02-17T01:38:01.260Z,0.90
2023-02-17T01:40:28.082Z,0.60
2023-02-17T01:42:54.936Z,0.60
2023-02-17T01:45:21.808Z,0.65
2023-02-17T01:50:32.914Z,0.63
2023-02-17T01:53:01.506Z,0.47
2023-02-17T01:55:28.538Z,0.60
2023-02-17T01:57:58.009Z,0.70
2023-02-17T02:00:26.749Z,0.50
2023-02-17T02:05:22.695Z,0.52
2023-02-17T02:07:50.164Z,0.50
2023-02-17T02:10:17.794Z,0.60
2023-02-17T02:12:45.042Z,0.60
2023-02-17T02:15:15.367Z,0.60
2023-02-17T02:18:13.061Z,0.60
2023-02-17T02:21:11.649Z,0.50
2023-02-17T02:23:38.464Z,0.47
2023-02-17T02:26:32.789Z,0.60
2023-02-17T02:29:26.638Z,0.40
2023-02-17T02:32:10.984Z,0.40
2023-02-17T02:34:45.864Z,0.52
2023-02-17T02:37:21.114Z,0.60
2023-02-17T02:39:50.054Z,0.50
2023-02-17T02:42:19.731Z,0.57
2023-02-17T02:47:48.915Z,0.40
2023-02-17T02:50:40.628Z,0.30
2023-02-17T02:53:29.749Z,0.50
2023-02-17T02:59:08.172Z,0.35
2023-02-17T03:01:59.678Z,0.50
2023-02-17T03:05:02.364Z,0.47
2023-02-17T03:07:34.211Z,0.40
2023-02-17T03:10:01.216Z,0.40
2023-02-17T03:12:28.820Z,0.50
2023-02-17T03:15:05.254Z,0.50
2023-02-17T03:17:33.329Z,0.45
2023-02-17T03:20:01.986Z,0.40
2023-02-17T03:22:34.257Z,0.67
2023-02-17T03:25:01.357Z,0.40
2023-02-17T03:27:28.599Z,0.40
2023-02-17T03:29:55.569Z,0.40
2023-02-17T03:32:22.564Z,0.45
2023-02-17T03:34:49.461Z,0.40
2023-02-17T03:37:16.430Z,0.68
2023-02-17T03:39:43.340Z,0.50
2023-02-17T03:42:11.114Z,0.40
2023-02-17T03:44:38.086Z,0.52
2023-02-17T03:47:05.127Z,0.50
2023-02-17T03:49:32.019Z,0.50
2023-02-17T03:51:59.472Z,0.50
2023-02-17T03:54:27.085Z,0.40
2023-02-17T03:56:53.991Z,0.45
2023-02-17T03:59:20.872Z,0.35
2023-02-17T04:01:47.763Z,0.45
2023-02-17T04:04:14.701Z,0.30
2023-02-17T04:06:41.651Z,0.32
2023-02-17T04:09:08.614Z,0.47
2023-02-17T04:11:35.519Z,0.50
2023-02-17T04:14:02.449Z,0.38
2023-02-17T04:16:29.402Z,0.50
2023-02-17T04:18:56.385Z,0.40
2023-02-17T04:21:23.282Z,0.47
2023-02-17T04:23:50.189Z,0.60
2023-02-17T04:26:17.063Z,0.40
2023-02-17T04:28:43.966Z,0.40
2023-02-17T04:31:10.924Z,0.30
2023-02-17T04:33:38.067Z,0.43
2023-02-17T04:36:05.896Z,0.68
2023-02-17T04:38:33.442Z,0.52
2023-02-17T04:41:00.823Z,0.50
2023-02-17T04:43:28.733Z,0.40
2023-02-17T04:45:55.726Z,0.38
2023-02-17T04:48:22.975Z,0.40
2023-02-17T04:50:50.118Z,0.40
2023-02-17T04:53:17.077Z,0.50
2023-02-17T04:55:44.083Z,0.40
2023-02-17T04:58:11.174Z,0.50
2023-02-17T05:00:38.130Z,0.47
2023-02-17T05:03:05.039Z,0.55
2023-02-17T05:05:32.025Z,0.50
2023-02-17T05:07:58.899Z,0.40
2023-02-17T05:10:25.793Z,0.45
2023-02-17T05:12:52.702Z,0.32
2023-02-17T05:15:19.702Z,0.47
2023-02-17T05:17:46.598Z,0.50
2023-02-17T05:20:14.051Z,0.50
2023-02-17T05:22:40.909Z,0.50
2023-02-17T05:25:08.325Z,0.50
2023-02-17T05:27:35.294Z,0.52
2023-02-17T05:32:29.752Z,0.40
2023-02-17T05:34:56.635Z,0.40
2023-02-17T05:37:23.591Z,0.52
2023-02-17T05:39:50.480Z,0.50
2023-02-17T05:42:17.339Z,0.40
2023-02-17T05:44:44.288Z,0.47
2023-02-17T05:47:11.172Z,0.50
2023-02-17T05:49:38.089Z,0.50
2023-02-17T05:52:05.075Z,0.50
2023-02-17T05:54:31.999Z,0.60
2023-02-17T05:56:58.860Z,0.57
2023-02-17T05:59:25.955Z,0.35
2023-02-17T06:01:52.912Z,0.60
2023-02-17T06:04:19.847Z,0.40
2023-02-17T06:06:46.821Z,0.40
2023-02-17T06:09:13.794Z,0.57
2023-02-17T06:11:40.679Z,0.60
2023-02-17T06:14:07.571Z,0.60
2023-02-17T06:16:34.525Z,0.50
2023-02-17T06:19:02.582Z,0.65
2023-02-17T06:21:29.458Z,0.50
2023-02-17T06:23:56.455Z,0.40
2023-02-17T06:26:23.468Z,0.50
2023-02-17T06:28:50.360Z,0.43
2023-02-17T06:31:17.387Z,0.38
2023-02-17T06:33:44.272Z,0.57
2023-02-17T06:36:11.232Z,0.50
2023-02-17T06:38:38.189Z,0.50
2023-02-17T06:41:05.246Z,0.43
2023-02-17T06:45:59.439Z,0.50
2023-02-17T06:48:26.475Z,0.50
2023-02-17T06:50:53.470Z,0.38
2023-02-17T06:53:20.344Z,0.40
2023-02-17T06:55:47.257Z,0.60
2023-02-17T06:58:14.216Z,0.50
2023-02-17T07:00:41.313Z,0.40
2023-02-17T07:03:08.260Z,0.45
2023-02-17T07:05:36.330Z,0.50
2023-02-17T07:08:04.161Z,0.50
2023-02-17T07:10:31.775Z,0.50
2023-02-17T07:12:58.778Z,0.70
2023-02-17T07:15:25.835Z,0.40
2023-02-17T07:17:52.702Z,0.60
2023-02-17T07:20:19.872Z,0.40
2023-02-17T07:22:46.830Z,0.47
2023-02-17T07:25:13.810Z,0.65
2023-02-17T07:27:40.733Z,0.50
2023-02-17T07:30:08.291Z,0.60
2023-02-17T07:32:35.618Z,3.15
2023-02-17T07:35:02.629Z,3.65
2023-02-17T07:37:29.663Z,3.80
2023-02-17T07:39:57.315Z,3.00
2023-02-17T07:42:24.449Z,2.25
2023-02-17T07:44:51.383Z,1.83
2023-02-17T07:47:18.288Z,1.90
2023-02-17T07:49:46.392Z,1.70
2023-02-17T07:52:13.251Z,1.70
2023-02-17T07:54:40.183Z,1.45
2023-02-17T07:57:07.136Z,1.40
2023-02-17T07:59:34.017Z,1.45
2023-02-17T08:02:01.003Z,3.50
2023-02-17T08:04:28.030Z,3.88
2023-02-17T08:06:54.931Z,2.75
2023-02-17T08:09:40.306Z,2.40
2023-02-17T08:12:33.665Z,2.20
2023-02-17T08:15:01.948Z,1.73
2023-02-17T08:17:29.588Z,1.50
2023-02-17T08:19:56.896Z,1.70
2023-02-17T08:22:23.797Z,1.63
2023-02-17T08:24:50.833Z,1.60
2023-02-17T08:27:18.509Z,2.33
2023-02-17T08:29:46.159Z,4.18
2023-02-17T08:32:15.266Z,3.75
2023-02-17T08:34:42.449Z,2.88
2023-02-17T08:37:10.704Z,3.00
2023-02-17T08:39:37.639Z,2.00
2023-02-17T08:42:05.051Z,1.70
2023-02-17T08:44:35.383Z,1.92
2023-02-17T08:47:02.832Z,1.50
2023-02-17T08:49:32.301Z,1.67
2023-02-17T08:51:59.978Z,1.40
2023-02-17T08:54:27.396Z,2.30
2023-02-17T08:56:54.898Z,4.60
2023-02-17T08:59:21.819Z,3.60
2023-02-17T09:01:48.725Z,3.13
2023-02-17T09:04:16.284Z,2.60
2023-02-17T09:06:46.371Z,1.90
2023-02-17T09:09:15.416Z,1.92
2023-02-17T09:11:43.014Z,1.75
2023-02-17T09:14:10.020Z,3.47
2023-02-17T09:16:38.301Z,4.22
2023-02-17T09:19:06.749Z,4.07
2023-02-17T09:21:33.702Z,3.40
2023-02-17T09:24:00.675Z,3.03
2023-02-17T09:26:27.646Z,2.50
2023-02-17T09:28:54.715Z,2.13
2023-02-17T09:31:24.844Z,2.00
2023-02-17T09:33:52.069Z,2.10
2023-02-17T09:36:22.228Z,1.63
2023-02-17T09:38:49.565Z,1.70
2023-02-17T09:41:45.006Z,1.70
2023-02-17T09:44:24.079Z,1.60
2023-02-17T09:47:08.195Z,1.60
2023-02-17T09:49:42.081Z,1.38
2023-02-17T09:52:13.511Z,1.40
2023-02-17T09:54:46.896Z,1.30
2023-02-17T09:57:20.695Z,1.38
2023-02-17T10:00:01.263Z,1.23
2023-02-17T10:02:34.034Z,1.02
2023-02-17T10:05:04.906Z,1.10
2023-02-17T10:07:37.140Z,1.00
2023-02-17T10:10:24.192Z,1.27
2023-02-17T10:12:55.625Z,0.82
2023-02-17T10:15:25.679Z,1.00
2023-02-17T10:18:06.330Z,2.60
2023-02-17T10:20:51.163Z,3.08
2023-02-17T10:23:22.534Z,2.95
2023-02-17T10:26:26.883Z,2.30
2023-02-17T10:28:59.635Z,1.80
2023-02-17T10:31:32.120Z,1.67
2023-02-17T10:34:14.820Z,1.73
2023-02-17T10:37:00.132Z,3.55
2023-02-17T10:39:53.558Z,2.92
2023-02-17T10:42:21.867Z,2.85
2023-02-17T10:44:50.828Z,2.20
2023-02-17T10:47:18.918Z,1.60
2023-02-17T10:49:49.618Z,1.40
2023-02-17T10:52:28.055Z,1.58
2023-02-17T10:54:59.933Z,1.60
2023-02-17T10:57:35.036Z,3.15
2023-02-17T11:00:02.098Z,4.70
2023-02-17T11:02:45.132Z,4.15
2023-02-17T11:05:33.102Z,3.25
2023-02-17T11:08:07.580Z,2.50
2023-02-17T11:10:37.115Z,2.10
2023-02-17T11:13:38.152Z,2.00
2023-02-17T11:16:06.281Z,1.88
2023-02-17T11:18:35.817Z,1.48
2023-02-17T11:21:06.709Z,1.35
2023-02-17T11:23:33.869Z,1.30
2023-02-17T11:26:10.178Z,0.90
2023-02-17T11:28:37.339Z,1.35
2023-02-17T11:31:05.029Z,2.80
2023-02-17T11:33:33.623Z,2.40
2023-02-17T11:36:01.217Z,1.63
2023-02-17T11:38:40.640Z,1.60
2023-02-17T11:41:07.941Z,1.02
2023-02-17T11:43:36.245Z,1.20
2023-02-17T11:46:46.780Z,1.02
2023-02-17T11:49:31.030Z,1.15
2023-02-17T11:52:24.106Z,0.85
2023-02-17T11:55:10.264Z,0.80
2023-02-17T11:57:43.250Z,0.80
2023-02-17T12:00:14.164Z,0.73
2023-02-17T12:03:09.788Z,0.98
2023-02-17T12:06:02.633Z,0.65
2023-02-17T12:08:54.140Z,0.73
2023-02-17T12:11:37.441Z,0.70
2023-02-17T12:14:16.257Z,0.75
2023-02-17T12:16:56.021Z,1.00
2023-02-17T12:19:44.176Z,0.75
2023-02-17T12:22:46.797Z,0.50
2023-02-17T12:25:24.602Z,0.60
2023-02-17T12:28:06.632Z,0.60
2023-02-17T12:31:02.419Z,0.50
2023-02-17T12:33:55.195Z,0.47
2023-02-17T12:36:26.055Z,0.63
2023-02-17T12:39:03.487Z,0.50
2023-02-17T12:41:43.105Z,0.40
2023-02-17T12:46:46.187Z,3.58
2023-02-17T12:49:17.021Z,3.15
2023-02-17T12:51:49.799Z,2.83
2023-02-17T12:54:31.707Z,2.42
2023-02-17T12:57:22.073Z,1.88
2023-02-17T12:59:52.405Z,2.17
2023-02-17T13:02:21.532Z,2.10
2023-02-17T13:04:51.746Z,3.13
2023-02-17T13:07:43.551Z,3.65
2023-02-17T13:10:31.539Z,5.07
2023-02-17T13:13:05.107Z,5.13
2023-02-17T13:15:42.912Z,5.30
2023-02-17T13:18:24.880Z,5.20
2023-02-17T13:20:52.943Z,5.32
2023-02-17T13:23:40.174Z,5.07
2023-02-17T13:26:17.787Z,4.38
2023-02-17T13:28:45.339Z,3.90
2023-02-17T13:31:18.462Z,4.05
2023-02-17T13:33:56.806Z,3.80
2023-02-17T13:36:32.490Z,3.20
2023-02-17T13:39:03.010Z,2.90
2023-02-17T13:41:35.064Z,3.10
2023-02-17T13:44:26.161Z,3.10
2023-02-17T13:46:53.924Z,4.07
2023-02-17T13:49:24.142Z,4.13
2023-02-17T13:51:51.093Z,4.35
2023-02-17T13:54:21.575Z,4.50
2023-02-17T13:56:53.183Z,4.30
2023-02-17T13:59:27.315Z,4.38
2023-02-17T14:01:57.488Z,3.75
2023-02-17T14:04:28.257Z,3.72
2023-02-17T14:06:58.510Z,3.17
2023-02-17T14:09:28.145Z,2.90
2023-02-17T14:14:25.133Z,2.60
2023-02-17T14:17:31.517Z,2.70
2023-02-17T14:20:00.979Z,2.58
2023-02-17T14:22:30.562Z,2.07
2023-02-17T14:27:27.291Z,2.00
2023-02-17T14:29:54.226Z,1.67
2023-02-17T14:32:31.504Z,1.70
2023-02-17T14:35:14.573Z,1.45
2023-02-17T14:37:42.256Z,1.55
2023-02-17T14:40:24.324Z,2.03
2023-02-17T14:42:51.784Z,2.60
2023-02-17T14:45:19.278Z,2.67
2023-02-17T14:47:46.681Z,3.30
2023-02-17T14:50:14.870Z,2.92
2023-02-17T14:52:45.438Z,2.10
2023-02-17T14:55:34.329Z,2.08
2023-02-17T14:58:01.463Z,1.60
2023-02-17T15:00:28.548Z,1.55
2023-02-17T15:02:55.461Z,1.50
2023-02-17T15:05:22.360Z,1.42
2023-02-17T15:07:49.683Z,1.40
2023-02-17T15:10:27.576Z,1.20
2023-02-17T15:12:55.157Z,1.38
2023-02-17T15:15:22.357Z,1.40
2023-02-17T15:17:49.802Z,1.25
2023-02-17T15:20:17.487Z,1.30
2023-02-17T15:22:44.576Z,1.20
2023-02-17T15:25:16.147Z,1.10
2023-02-17T15:27:43.748Z,1.30
2023-02-17T15:30:12.935Z,1.10
2023-02-17T15:32:40.492Z,1.00
2023-02-17T15:35:27.464Z,1.10
2023-02-17T15:37:56.469Z,0.90
2023-02-17T15:40:25.365Z,1.10
2023-02-17T15:43:03.256Z,1.05
2023-02-17T15:45:30.898Z,0.90
2023-02-17T15:48:11.741Z,0.90
2023-02-17T15:50:38.834Z,0.80
2023-02-17T15:53:05.869Z,0.70
2023-02-17T15:55:33.830Z,0.80
2023-02-17T15:58:04.221Z,0.80
2023-02-17T16:00:35.971Z,0.70
2023-02-17T16:03:03.094Z,0.70
2023-02-17T16:05:30.548Z,0.80
2023-02-17T16:07:57.544Z,0.80
2023-02-17T16:10:27.316Z,0.60
2023-02-17T16:12:56.262Z,0.60
2023-02-17T16:15:24.793Z,0.60
2023-02-17T16:17:51.747Z,0.50
2023-02-17T16:20:24.943Z,0.70
2023-02-17T16:22:51.922Z,0.50
2023-02-17T16:25:20.547Z,0.57
2023-02-17T16:27:49.548Z,0.50
2023-02-17T16:30:22.445Z,0.82
2023-02-17T16:32:50.316Z,0.50
2023-02-17T16:35:19.000Z,0.45
2023-02-17T16:37:55.318Z,0.50
2023-02-17T16:42:53.336Z,0.60
2023-02-17T16:45:25.596Z,0.65
2023-02-17T16:47:54.504Z,0.70
2023-02-17T16:50:31.505Z,0.75
2023-02-17T16:53:01.312Z,0.68
2023-02-17T16:55:32.341Z,0.60
2023-02-17T16:57:59.409Z,0.50
2023-02-17T17:00:29.837Z,0.60
2023-02-17T17:02:57.698Z,0.60
2023-02-17T17:05:26.303Z,0.40
2023-02-17T17:07:53.496Z,1.40
2023-02-17T17:10:23.753Z,1.02
2023-02-17T17:12:50.679Z,1.02
2023-02-17T17:15:18.715Z,1.08
2023-02-17T17:17:55.191Z,1.10
2023-02-17T17:20:26.926Z,0.80
2023-02-17T17:22:53.866Z,0.80
2023-02-17T17:25:20.887Z,0.90
2023-02-17T17:27:47.784Z,0.90
2023-02-17T17:30:20.642Z,0.95
2023-02-17T17:32:48.136Z,0.70
2023-02-17T17:35:15.647Z,0.90
2023-02-17T17:37:43.117Z,0.85
2023-02-17T17:40:25.230Z,0.73
2023-02-17T17:42:52.622Z,0.80
2023-02-17T17:45:19.756Z,0.90
2023-02-17T17:47:46.758Z,2.88
2023-02-17T17:50:18.208Z,8.48
2023-02-17T17:52:45.848Z,8.95
2023-02-17T17:55:13.848Z,7.85
2023-02-17T17:57:41.515Z,6.18
2023-02-17T18:00:11.110Z,4.95
2023-02-17T18:05:04.895Z,3.50
2023-02-17T18:10:04.163Z,2.67
2023-02-17T18:12:32.649Z,2.55
2023-02-17T18:15:02.661Z,4.82
2023-02-17T18:17:31.249Z,5.53
2023-02-17T18:19:58.156Z,6.20
2023-02-17T18:22:25.224Z,6.57
2023-02-17T18:24:52.086Z,5.40
2023-02-17T18:27:19.046Z,5.35
2023-02-17T18:29:45.960Z,5.13
2023-02-17T18:32:12.874Z,4.50
2023-02-17T18:34:39.842Z,4.40
2023-02-17T18:37:08.170Z,4.18
2023-02-17T18:39:35.121Z,4.05
2023-02-17T18:42:02.059Z,3.83
2023-02-17T18:44:28.917Z,3.88
2023-02-17T18:46:55.847Z,4.10
2023-02-17T18:49:22.735Z,6.68
2023-02-17T18:51:50.809Z,9.82
2023-02-17T18:54:17.801Z,11.73
2023-02-17T18:56:44.786Z,11.20
2023-02-17T18:59:11.730Z,10.05
2023-02-17T19:01:40.832Z,9.75
2023-02-17T19:04:09.675Z,9.32
2023-02-17T19:06:36.723Z,8.65
2023-02-17T19:09:04.642Z,8.23
2023-02-17T19:11:33.253Z,7.05
2023-02-17T19:14:01.176Z,7.23
2023-02-17T19:16:30.885Z,6.78
2023-02-17T19:18:58.398Z,6.60
2023-02-17T19:21:25.824Z,6.53
2023-02-17T19:23:53.329Z,5.88
2023-02-17T19:26:21.302Z,5.55
2023-02-17T19:28:48.669Z,5.32
2023-02-17T19:31:18.647Z,5.03
2023-02-17T19:33:46.133Z,5.03
2023-02-17T19:36:15.905Z,4.72
2023-02-17T19:38:42.888Z,4.88
2023-02-17T19:41:11.509Z,4.78
2023-02-17T19:43:39.194Z,4.17
2023-02-17T19:46:06.644Z,4.35
2023-02-17T19:48:34.418Z,3.83
2023-02-17T19:51:03.924Z,3.40
2023-02-17T19:53:31.593Z,3.67
2023-02-17T19:56:14.271Z,3.63
2023-02-17T19:58:43.212Z,3.67
2023-02-17T20:01:19.221Z,4.65
2023-02-17T20:03:46.436Z,10.75
2023-02-17T20:06:22.973Z,11.35
2023-02-17T20:09:03.862Z,12.73
2023-02-17T20:11:32.389Z,13.65
2023-02-17T20:14:00.478Z,13.68
2023-02-17T20:16:28.203Z,12.45
2023-02-17T20:18:55.653Z,11.15
2023-02-17T20:21:25.290Z,11.50
2023-02-17T20:23:52.604Z,13.15
2023-02-17T20:26:28.487Z,16.80
2023-02-17T20:28:56.155Z,14.95
2023-02-17T20:31:24.478Z,13.85
2023-02-17T20:33:51.843Z,13.45
2023-02-17T20:36:19.266Z,12.90
2023-02-17T20:38:46.290Z,12.98
2023-02-17T20:41:16.174Z,12.80
2023-02-17T20:43:43.101Z,12.75
2023-02-17T20:46:15.134Z,12.85
2023-02-17T20:48:42.384Z,12.73
2023-02-17T20:51:09.302Z,12.13
2023-02-17T20:53:36.311Z,12.30
2023-02-17T20:56:03.600Z,12.32
2023-02-17T20:58:30.603Z,14.82
2023-02-17T21:00:57.783Z,13.93
2023-02-17T21:03:24.849Z,14.02
2023-02-17T21:05:54.371Z,12.77
2023-02-17T21:08:21.422Z,11.48
2023-02-17T21:10:48.345Z,10.30
2023-02-17T21:13:15.652Z,13.93
2023-02-17T21:15:42.687Z,9.52
2023-02-17T21:18:09.651Z,10.02
2023-02-17T21:20:44.994Z,10.88
2023-02-17T21:23:22.527Z,11.55
2023-02-17T21:26:43.553Z,13.80
2023-02-17T21:29:24.814Z,12.68
2023-02-17T21:31:53.268Z,11.95
2023-02-17T21:34:20.609Z,10.25
2023-02-17T21:36:47.714Z,9.52
2023-02-17T21:39:41.032Z,10.38
2023-02-17T21:42:08.477Z,9.50
2023-02-17T21:44:53.642Z,7.82
2023-02-17T21:47:21.546Z,7.68
2023-02-17T21:49:52.384Z,7.00
2023-02-17T21:52:19.350Z,7.03
2023-02-17T21:54:46.219Z,6.70
2023-02-17T21:57:13.270Z,7.25
2023-02-17T21:59:40.303Z,8.55
2023-02-17T22:02:07.819Z,10.02
2023-02-17T22:04:34.829Z,9.35
2023-02-17T22:07:01.809Z,9.52
2023-02-17T22:09:28.746Z,7.93
2023-02-17T22:11:56.199Z,7.80
2023-02-17T22:14:23.140Z,6.43
2023-02-17T22:16:50.347Z,6.07
2023-02-17T22:19:20.058Z,6.35
2023-02-17T22:21:47.745Z,6.10
2023-02-17T22:24:15.366Z,5.70
2023-02-17T22:26:42.685Z,5.25
2023-02-17T22:31:37.296Z,5.72
2023-02-17T22:34:07.099Z,4.85
2023-02-17T22:36:35.476Z,4.70
2023-02-17T22:39:04.008Z,4.32
2023-02-17T22:41:31.158Z,4.68
2023-02-17T22:43:58.212Z,4.25
2023-02-17T22:46:27.103Z,4.65
2023-02-17T22:48:55.803Z,4.35
2023-02-17T22:51:49.094Z,4.40
2023-02-17T22:54:16.249Z,6.78
2023-02-17T22:56:43.433Z,8.70
2023-02-17T22:59:10.795Z,9.20
2023-02-17T23:01:38.125Z,6.85
2023-02-17T23:04:05.816Z,7.03
2023-02-17T23:06:36.185Z,5.57
2023-02-17T23:09:04.095Z,5.38
2023-02-17T23:11:52.506Z,7.22
2023-02-17T23:14:29.095Z,8.48
2023-02-17T23:17:00.332Z,7.60
2023-02-17T23:19:27.988Z,7.97
2023-02-17T23:22:01.388Z,7.03
2023-02-17T23:24:28.805Z,6.70
2023-02-17T23:26:57.547Z,6.70
2023-02-17T23:29:25.229Z,5.70
2023-02-17T23:31:52.837Z,5.15
2023-02-17T23:34:20.106Z,5.25
2023-02-17T23:36:47.527Z,4.75
2023-02-17T23:39:15.742Z,5.82
2023-02-17T23:41:43.343Z,5.55
2023-02-17T23:44:11.974Z,4.80
2023-02-17T23:46:40.792Z,4.45
2023-02-17T23:49:08.251Z,4.30
2023-02-17T23:51:35.563Z,4.10
2023-02-17T23:54:02.833Z,3.78
2023-02-17T23:56:32.385Z,4.03
2023-02-17T23:59:00.097Z,3.67
